Marella Celebration — 9HUI9 — position and weather

sailwx.info

Track history (hours):
 
Tides and Currents Weather Stations Pressure Air Temp Water Temp Dewpoint Dewpoint Depression Visibility Wind Speed Wind Dir Waves Ship Positions

Marella Celebration

Last reported at 2018-Jun-18 21:20 UTC. Time now 2018-Jun-19 10:50 UTC.
Position N 44°36' E 013°35'.

Length 214 m; draft 8 m.

Type: Passenger vessel. MMSI: 249544000.

Date/timePositionNaut miles runAvg speedWind from/ knotsBaromVisibWave heightAir tempDewpointWater temp
2018-Jun-18 21:20N 44°36' E 013°35'617.3
2018-Jun-18 21:00N 44°40' E 013°30'1517.1
2018-Jun-18 20:08N 44°53' E 013°18'216.8
2018-Jun-18 20:00N 44°54' E 013°17'816.9
2018-Jun-18 19:30N 45°01' E 013°09'917.1
2018-Jun-18 19:00N 45°07' E 013°00'917.1
2018-Jun-18 18:30N 45°13' E 012°52'816.7
2018-Jun-18 18:00N 45°18' E 012°43'1015.7
2018-Jun-18 17:22N 45°23' E 012°30'411.7
2018-Jun-18 17:01N 45°26' E 012°25'3 6.1
2018-Jun-18 16:30N 45°26' E 012°21'2 3.1
2018-Jun-18 16:00N 45°26' E 012°19'0 0.0
2018-Jun-18 15:29N 45°26' E 012°19'0 0.0
2018-Jun-18 14:59N 45°26' E 012°19'0 0.0
2018-Jun-18 14:28N 45°26' E 012°19'0 0.0
2018-Jun-18 13:58N 45°26' E 012°19'0 0.0
2018-Jun-18 13:28N 45°26' E 012°19'0 0.0
2018-Jun-18 12:58N 45°26' E 012°19'0 0.0
2018-Jun-18 12:25N 45°26' E 012°19'0 0.0
2018-Jun-18 11:58N 45°26' E 012°19'0 0.0
2018-Jun-18 11:25N 45°26' E 012°19'0 0.0
2018-Jun-18 10:58N 45°26' E 012°19'0 0.0
2018-Jun-18 10:28N 45°26' E 012°19'0 0.0
2018-Jun-18 09:58N 45°26' E 012°19'0 0.0
2018-Jun-18 09:28N 45°26' E 012°19'0 0.0
2018-Jun-18 08:58N 45°26' E 012°19'0 0.0
2018-Jun-18 08:28N 45°26' E 012°19'0 0.0
2018-Jun-18 07:58N 45°26' E 012°19'0 0.0
2018-Jun-18 07:28N 45°26' E 012°19'0 0.0
2018-Jun-18 06:58N 45°26' E 012°19'0 0.0
2018-Jun-18 06:28N 45°26' E 012°19'0 0.0
2018-Jun-18 05:58N 45°26' E 012°19'0 0.0
2018-Jun-18 05:28N 45°26' E 012°19'1 1.7
2018-Jun-18 05:00N 45°26' E 012°20'2 4.7
2018-Jun-18 04:30N 45°26' E 012°23'4 8.6
2018-Jun-18 04:00N 45°24' E 012°28'710.8
2018-Jun-18 03:24N 45°18' E 012°32'511.8
2018-Jun-18 02:58N 45°15' E 012°37'612.7
2018-Jun-18 02:30N 45°11' E 012°44'62 2.6
2018-Jun-17 02:42N 44°12' E 013°14'418.4
2018-Jun-17 02:29N 44°16' E 013°11'918.2
2018-Jun-17 01:59N 44°24' E 013°07'918.3
2018-Jun-17 01:30N 44°33' E 013°04'918.3
2018-Jun-17 01:00N 44°42' E 013°00'918.0
2018-Jun-17 00:30N 44°50' E 012°59'918.2
2018-Jun-17 00:00N 44°60' E 012°60'918.4
2018-Jun-16 23:30N 45°09' E 013°01'918.3
2018-Jun-16 23:00N 45°18' E 013°01'816.9
2018-Jun-16 22:30N 45°26' E 013°05'918.5
2018-Jun-16 22:00N 45°32' E 013°15'918.3
2018-Jun-16 21:30N 45°36' E 013°27'816.0
2018-Jun-16 21:00N 45°36' E 013°38'510.1
2018-Jun-16 20:30N 45°33' E 013°44'0 0.1
2018-Jun-16 19:58N 45°33' E 013°44'0 0.0
2018-Jun-16 19:30N 45°33' E 013°44'0 0.0
2018-Jun-16 18:58N 45°33' E 013°44'0 0.0
2018-Jun-16 18:30N 45°33' E 013°44'0 0.0
2018-Jun-16 17:58N 45°33' E 013°44'0 0.0
2018-Jun-16 17:27N 45°33' E 013°44'0 0.0
2018-Jun-16 17:00N 45°33' E 013°44'0 0.0
2018-Jun-16 16:26N 45°33' E 013°44'0 0.0
2018-Jun-16 15:58N 45°33' E 013°44'0 0.0
2018-Jun-16 15:30N 45°33' E 013°44'0 0.0
2018-Jun-16 14:58N 45°33' E 013°44'0 0.0
2018-Jun-16 14:30N 45°33' E 013°44'0 0.0
2018-Jun-16 14:00N 45°33' E 013°44'0 0.0
2018-Jun-16 13:29N 45°33' E 013°44'0 0.0
2018-Jun-16 12:58N 45°33' E 013°44'0 0.0
2018-Jun-16 12:28N 45°33' E 013°44'0 0.0
2018-Jun-16 11:54N 45°33' E 013°44'0 0.0
2018-Jun-16 11:29N 45°33' E 013°44'0 0.0
2018-Jun-16 10:59N 45°33' E 013°44'0 0.0
2018-Jun-16 10:29N 45°33' E 013°44'0 0.0
2018-Jun-16 09:59N 45°33' E 013°44'0 0.0
2018-Jun-16 09:29N 45°33' E 013°44'0 0.0
2018-Jun-16 08:58N 45°33' E 013°44'0 0.0
2018-Jun-16 08:30N 45°33' E 013°44'0 0.0
2018-Jun-16 07:56N 45°33' E 013°44'0 0.0
2018-Jun-16 07:29N 45°33' E 013°44'0 0.0
2018-Jun-16 06:57N 45°33' E 013°44'0 0.0
2018-Jun-16 06:28N 45°33' E 013°44'0 0.0
2018-Jun-16 05:59N 45°33' E 013°44'0 0.0
2018-Jun-16 05:30N 45°33' E 013°44'2 3.5
2018-Jun-16 05:00N 45°34' E 013°41'5 9.5
2018-Jun-16 04:31N 45°35' E 013°35'510.6
2018-Jun-16 04:00N 45°33' E 013°28'510.7
2018-Jun-16 03:30N 45°30' E 013°21'510.8
2018-Jun-16 03:00N 45°27' E 013°15'510.4
2018-Jun-16 02:30N 45°23' E 013°09'4 8.5
2018-Jun-16 02:00N 45°19' E 013°08'4 7.7
2018-Jun-16 01:30N 45°16' E 013°10'4 7.2
2018-Jun-16 01:00N 45°13' E 013°13'6 8.5
2018-Jun-16 00:20N 45°08' E 013°16'310.1
2018-Jun-16 00:00N 45°04' E 013°18'5 9.8
2018-Jun-15 23:30N 44°60' E 013°20'510.5
2018-Jun-15 23:00N 44°55' E 013°24'816.7
2018-Jun-15 22:31N 44°48' E 013°30'612.0
2018-Jun-15 22:00N 44°43' E 013°34'6 9.7
2018-Jun-15 21:25N 44°38' E 013°38'610.0
2018-Jun-15 20:50N 44°33' E 013°43'610.3
2018-Jun-15 20:16N 44°28' E 013°47'710.3
2018-Jun-15 19:35N 44°22' E 013°53'110.1
2018-Jun-15 19:31N 44°22' E 013°53'  
2018-Jun-10 16:39N 37°37' E 023°44'214.8
2018-Jun-10 16:30N 37°39' E 023°42'815.0
2018-Jun-10 16:00N 37°46' E 023°38'714.5
2018-Jun-10 15:30N 37°53' E 023°37'3 6.5
2018-Jun-10 15:00N 37°56' E 023°38'0 0.2
2018-Jun-10 14:30N 37°56' E 023°38'0 0.0
2018-Jun-10 13:30N 37°56' E 023°38'0 0.0
2018-Jun-10 13:00N 37°56' E 023°38'0 0.0
2018-Jun-10 12:30N 37°56' E 023°38'0 0.0
2018-Jun-10 12:00N 37°56' E 023°38'0 0.0
2018-Jun-10 11:30N 37°56' E 023°38'0 0.0
2018-Jun-10 11:00N 37°56' E 023°38'0 0.0
2018-Jun-10 10:30N 37°56' E 023°38'0 0.0
2018-Jun-10 10:00N 37°56' E 023°38'0 0.0
2018-Jun-10 09:30N 37°56' E 023°38'0 0.0
2018-Jun-10 09:00N 37°56' E 023°38'0 0.0
2018-Jun-10 08:30N 37°56' E 023°38'0 0.0
2018-Jun-10 08:00N 37°56' E 023°38'0 0.0
2018-Jun-10 07:30N 37°56' E 023°38'0 0.0
2018-Jun-10 07:00N 37°56' E 023°38'0 0.0
2018-Jun-10 06:30N 37°56' E 023°38'0 0.0
2018-Jun-10 06:00N 37°56' E 023°38'0 0.0
2018-Jun-10 05:30N 37°56' E 023°38'0 0.0
2018-Jun-10 05:00N 37°56' E 023°38'0 0.0
2018-Jun-10 04:30N 37°56' E 023°38'0 0.0
2018-Jun-10 04:00N 37°56' E 023°38'1 2.9
2018-Jun-10 03:30N 37°55' E 023°37'1 2.2
2018-Jun-10 03:00N 37°54' E 023°37'4 7.6
2018-Jun-10 02:30N 37°51' E 023°39'713.6
2018-Jun-10 02:00N 37°45' E 023°43'713.5
2018-Jun-10 01:31N 37°39' E 023°46'128 6.0
2018-Jun-09 04:04N 35°33' E 024°15'112.4
2018-Jun-09 03:59N 35°34' E 024°14'612.3
2018-Jun-09 03:30N 35°38' E 024°10'714.7
2018-Jun-09 03:00N 35°42' E 024°02'4115.2
2018-Jun-09 00:19N 36°00' E 023°17'  
Track history (hours):
 
Tides and Currents Weather Stations Pressure Air Temp Water Temp Dewpoint Dewpoint Depression Visibility Wind Speed Wind Dir Waves Ship Positions

Marella Celebration

Last reported at 2018-Jun-18 21:20 UTC. Time now 2018-Jun-19 10:50 UTC.
Position N 44°36' E 013°35'.

Length 214 m; draft 8 m.

Type: Passenger vessel. MMSI: 249544000.

Date/timePositionNaut miles runAvg speedWind from/ knotsBaromVisibWave heightAir tempDewpointWater temp
2018-Jun-18 21:20N 44°36' E 013°35'617.3
2018-Jun-18 21:00N 44°40' E 013°30'1517.1
2018-Jun-18 20:08N 44°53' E 013°18'216.8
2018-Jun-18 20:00N 44°54' E 013°17'816.9
2018-Jun-18 19:30N 45°01' E 013°09'917.1
2018-Jun-18 19:00N 45°07' E 013°00'917.1
2018-Jun-18 18:30N 45°13' E 012°52'816.7
2018-Jun-18 18:00N 45°18' E 012°43'1015.7
2018-Jun-18 17:22N 45°23' E 012°30'411.7
2018-Jun-18 17:01N 45°26' E 012°25'3 6.1
2018-Jun-18 16:30N 45°26' E 012°21'2 3.1
2018-Jun-18 16:00N 45°26' E 012°19'0 0.0
2018-Jun-18 15:29N 45°26' E 012°19'0 0.0
2018-Jun-18 14:59N 45°26' E 012°19'0 0.0
2018-Jun-18 14:28N 45°26' E 012°19'0 0.0
2018-Jun-18 13:58N 45°26' E 012°19'0 0.0
2018-Jun-18 13:28N 45°26' E 012°19'0 0.0
2018-Jun-18 12:58N 45°26' E 012°19'0 0.0
2018-Jun-18 12:25N 45°26' E 012°19'0 0.0
2018-Jun-18 11:58N 45°26' E 012°19'0 0.0
2018-Jun-18 11:25N 45°26' E 012°19'0 0.0
2018-Jun-18 10:58N 45°26' E 012°19'0 0.0
2018-Jun-18 10:28N 45°26' E 012°19'0 0.0
2018-Jun-18 09:58N 45°26' E 012°19'0 0.0
2018-Jun-18 09:28N 45°26' E 012°19'0 0.0
2018-Jun-18 08:58N 45°26' E 012°19'0 0.0
2018-Jun-18 08:28N 45°26' E 012°19'0 0.0
2018-Jun-18 07:58N 45°26' E 012°19'0 0.0
2018-Jun-18 07:28N 45°26' E 012°19'0 0.0
2018-Jun-18 06:58N 45°26' E 012°19'0 0.0
2018-Jun-18 06:28N 45°26' E 012°19'0 0.0
2018-Jun-18 05:58N 45°26' E 012°19'0 0.0
2018-Jun-18 05:28N 45°26' E 012°19'1 1.7
2018-Jun-18 05:00N 45°26' E 012°20'2 4.7
2018-Jun-18 04:30N 45°26' E 012°23'4 8.6
2018-Jun-18 04:00N 45°24' E 012°28'710.8
2018-Jun-18 03:24N 45°18' E 012°32'511.8
2018-Jun-18 02:58N 45°15' E 012°37'612.7
2018-Jun-18 02:30N 45°11' E 012°44'62 2.6
2018-Jun-17 02:42N 44°12' E 013°14'418.4
2018-Jun-17 02:29N 44°16' E 013°11'918.2
2018-Jun-17 01:59N 44°24' E 013°07'918.3
2018-Jun-17 01:30N 44°33' E 013°04'918.3
2018-Jun-17 01:00N 44°42' E 013°00'918.0
2018-Jun-17 00:30N 44°50' E 012°59'918.2
2018-Jun-17 00:00N 44°60' E 012°60'918.4
2018-Jun-16 23:30N 45°09' E 013°01'918.3
2018-Jun-16 23:00N 45°18' E 013°01'816.9
2018-Jun-16 22:30N 45°26' E 013°05'918.5
2018-Jun-16 22:00N 45°32' E 013°15'918.3
2018-Jun-16 21:30N 45°36' E 013°27'816.0
2018-Jun-16 21:00N 45°36' E 013°38'510.1
2018-Jun-16 20:30N 45°33' E 013°44'0 0.1
2018-Jun-16 19:58N 45°33' E 013°44'0 0.0
2018-Jun-16 19:30N 45°33' E 013°44'0 0.0
2018-Jun-16 18:58N 45°33' E 013°44'0 0.0
2018-Jun-16 18:30N 45°33' E 013°44'0 0.0
2018-Jun-16 17:58N 45°33' E 013°44'0 0.0
2018-Jun-16 17:27N 45°33' E 013°44'0 0.0
2018-Jun-16 17:00N 45°33' E 013°44'0 0.0
2018-Jun-16 16:26N 45°33' E 013°44'0 0.0
2018-Jun-16 15:58N 45°33' E 013°44'0 0.0
2018-Jun-16 15:30N 45°33' E 013°44'0 0.0
2018-Jun-16 14:58N 45°33' E 013°44'0 0.0
2018-Jun-16 14:30N 45°33' E 013°44'0 0.0
2018-Jun-16 14:00N 45°33' E 013°44'0 0.0
2018-Jun-16 13:29N 45°33' E 013°44'0 0.0
2018-Jun-16 12:58N 45°33' E 013°44'0 0.0
2018-Jun-16 12:28N 45°33' E 013°44'0 0.0
2018-Jun-16 11:54N 45°33' E 013°44'0 0.0
2018-Jun-16 11:29N 45°33' E 013°44'0 0.0
2018-Jun-16 10:59N 45°33' E 013°44'0 0.0
2018-Jun-16 10:29N 45°33' E 013°44'0 0.0
2018-Jun-16 09:59N 45°33' E 013°44'0 0.0
2018-Jun-16 09:29N 45°33' E 013°44'0 0.0
2018-Jun-16 08:58N 45°33' E 013°44'0 0.0
2018-Jun-16 08:30N 45°33' E 013°44'0 0.0
2018-Jun-16 07:56N 45°33' E 013°44'0 0.0
2018-Jun-16 07:29N 45°33' E 013°44'0 0.0
2018-Jun-16 06:57N 45°33' E 013°44'0 0.0
2018-Jun-16 06:28N 45°33' E 013°44'0 0.0
2018-Jun-16 05:59N 45°33' E 013°44'0 0.0
2018-Jun-16 05:30N 45°33' E 013°44'2 3.5
2018-Jun-16 05:00N 45°34' E 013°41'5 9.5
2018-Jun-16 04:31N 45°35' E 013°35'510.6
2018-Jun-16 04:00N 45°33' E 013°28'510.7
2018-Jun-16 03:30N 45°30' E 013°21'510.8
2018-Jun-16 03:00N 45°27' E 013°15'510.4
2018-Jun-16 02:30N 45°23' E 013°09'4 8.5
2018-Jun-16 02:00N 45°19' E 013°08'4 7.7
2018-Jun-16 01:30N 45°16' E 013°10'4 7.2
2018-Jun-16 01:00N 45°13' E 013°13'6 8.5
2018-Jun-16 00:20N 45°08' E 013°16'310.1
2018-Jun-16 00:00N 45°04' E 013°18'5 9.8
2018-Jun-15 23:30N 44°60' E 013°20'510.5
2018-Jun-15 23:00N 44°55' E 013°24'816.7
2018-Jun-15 22:31N 44°48' E 013°30'612.0
2018-Jun-15 22:00N 44°43' E 013°34'6 9.7
2018-Jun-15 21:25N 44°38' E 013°38'610.0
2018-Jun-15 20:50N 44°33' E 013°43'610.3
2018-Jun-15 20:16N 44°28' E 013°47'710.3
2018-Jun-15 19:35N 44°22' E 013°53'110.1
2018-Jun-15 19:31N 44°22' E 013°53'  
2018-Jun-10 16:39N 37°37' E 023°44'214.8
2018-Jun-10 16:30N 37°39' E 023°42'815.0
2018-Jun-10 16:00N 37°46' E 023°38'714.5
2018-Jun-10 15:30N 37°53' E 023°37'3 6.5
2018-Jun-10 15:00N 37°56' E 023°38'0 0.2
2018-Jun-10 14:30N 37°56' E 023°38'0 0.0
2018-Jun-10 13:30N 37°56' E 023°38'0 0.0
2018-Jun-10 13:00N 37°56' E 023°38'0 0.0
2018-Jun-10 12:30N 37°56' E 023°38'0 0.0
2018-Jun-10 12:00N 37°56' E 023°38'0 0.0
2018-Jun-10 11:30N 37°56' E 023°38'0 0.0
2018-Jun-10 11:00N 37°56' E 023°38'0 0.0
2018-Jun-10 10:30N 37°56' E 023°38'0 0.0
2018-Jun-10 10:00N 37°56' E 023°38'0 0.0
2018-Jun-10 09:30N 37°56' E 023°38'0 0.0
2018-Jun-10 09:00N 37°56' E 023°38'0 0.0
2018-Jun-10 08:30N 37°56' E 023°38'0 0.0
2018-Jun-10 08:00N 37°56' E 023°38'0 0.0
2018-Jun-10 07:30N 37°56' E 023°38'0 0.0
2018-Jun-10 07:00N 37°56' E 023°38'0 0.0
2018-Jun-10 06:30N 37°56' E 023°38'0 0.0
2018-Jun-10 06:00N 37°56' E 023°38'0 0.0
2018-Jun-10 05:30N 37°56' E 023°38'0 0.0
2018-Jun-10 05:00N 37°56' E 023°38'0 0.0
2018-Jun-10 04:30N 37°56' E 023°38'0 0.0
2018-Jun-10 04:00N 37°56' E 023°38'1 2.9
2018-Jun-10 03:30N 37°55' E 023°37'1 2.2
2018-Jun-10 03:00N 37°54' E 023°37'4 7.6
2018-Jun-10 02:30N 37°51' E 023°39'713.6
2018-Jun-10 02:00N 37°45' E 023°43'713.5
2018-Jun-10 01:31N 37°39' E 023°46'128 6.0
2018-Jun-09 04:04N 35°33' E 024°15'112.4
2018-Jun-09 03:59N 35°34' E 024°14'612.3
2018-Jun-09 03:30N 35°38' E 024°10'714.7
2018-Jun-09 03:00N 35°42' E 024°02'4115.2
2018-Jun-09 00:19N 36°00' E 023°17'  

Dump ship's entire track history